createdAt,value
2019-06-26T00:01:16.414Z,25.90
2019-06-26T00:03:43.005Z,25.90
2019-06-26T00:06:09.595Z,25.90
2019-06-26T00:08:36.166Z,25.80
2019-06-26T00:11:02.851Z,25.80
2019-06-26T00:13:29.424Z,25.70
2019-06-26T00:15:56.099Z,25.70
2019-06-26T00:18:22.693Z,25.60
2019-06-26T00:20:49.373Z,25.60
2019-06-26T00:23:15.995Z,25.50
2019-06-26T00:25:42.583Z,25.40
2019-06-26T00:28:09.174Z,25.40
2019-06-26T00:30:36.070Z,25.40
2019-06-26T00:33:02.814Z,25.30
2019-06-26T00:35:29.480Z,25.30
2019-06-26T00:37:56.093Z,25.20
2019-06-26T00:40:22.674Z,25.20
2019-06-26T00:42:49.265Z,25.10
2019-06-26T00:45:16.055Z,25.10
2019-06-26T00:47:42.720Z,25.10
2019-06-26T00:50:11.297Z,25.10
2019-06-26T00:52:37.992Z,25.00
2019-06-26T00:55:04.989Z,25.00
2019-06-26T00:57:31.597Z,25.00
2019-06-26T01:00:00.105Z,24.90
2019-06-26T01:02:26.688Z,25.00
2019-06-26T01:04:55.180Z,25.00
2019-06-26T01:07:21.839Z,25.00
2019-06-26T01:09:48.426Z,25.00
2019-06-26T01:12:15.123Z,25.00
2019-06-26T01:14:41.705Z,25.00
2019-06-26T01:17:08.303Z,25.10
2019-06-26T01:19:34.877Z,25.10
2019-06-26T01:22:01.484Z,25.00
2019-06-26T01:24:28.060Z,25.00
2019-06-26T01:26:54.670Z,25.10
2019-06-26T01:29:21.359Z,25.10
2019-06-26T01:31:47.957Z,25.10
2019-06-26T01:34:14.643Z,25.10
2019-06-26T01:36:41.237Z,25.10
2019-06-26T01:39:07.863Z,25.00
2019-06-26T01:41:34.431Z,25.00
2019-06-26T01:44:14.228Z,25.00
2019-06-26T01:46:31.212Z,25.00
2019-06-26T01:48:57.798Z,24.90
2019-06-26T01:51:24.384Z,24.90
2019-06-26T01:53:51.090Z,24.90
2019-06-26T01:56:17.662Z,24.90
2019-06-26T01:58:44.291Z,24.90
2019-06-26T02:01:10.871Z,24.80
2019-06-26T02:03:37.476Z,24.90
2019-06-26T02:06:04.103Z,24.80
2019-06-26T02:08:30.757Z,24.80
2019-06-26T02:10:57.341Z,24.80
2019-06-26T02:13:24.026Z,24.80
2019-06-26T02:15:50.603Z,24.80
2019-06-26T02:18:25.053Z,24.80
2019-06-26T02:20:51.754Z,24.80
2019-06-26T02:23:18.357Z,24.70
2019-06-26T02:25:44.938Z,24.70
2019-06-26T02:28:11.519Z,24.80
2019-06-26T02:30:38.136Z,24.80
2019-06-26T02:33:04.736Z,24.80
2019-06-26T02:35:31.314Z,24.90
2019-06-26T02:37:57.906Z,24.90
2019-06-26T02:40:24.493Z,24.90
2019-06-26T02:42:51.087Z,25.00
2019-06-26T02:45:17.688Z,25.00
2019-06-26T02:47:44.288Z,25.00
2019-06-26T02:50:11.074Z,25.00
2019-06-26T02:52:37.669Z,25.00
2019-06-26T02:55:05.611Z,25.00
2019-06-26T02:57:32.494Z,25.00
2019-06-26T02:59:59.093Z,25.00
2019-06-26T03:02:25.672Z,24.90
2019-06-26T03:04:52.346Z,24.90
2019-06-26T03:07:19.016Z,24.80
2019-06-26T03:09:45.617Z,24.70
2019-06-26T03:12:12.248Z,24.60
2019-06-26T03:14:38.870Z,24.50
2019-06-26T03:17:05.465Z,24.50
2019-06-26T03:19:32.069Z,24.60
2019-06-26T03:21:58.766Z,24.60
2019-06-26T03:24:25.415Z,24.70
2019-06-26T03:26:51.994Z,24.80
2019-06-26T03:29:18.609Z,24.90
2019-06-26T03:31:45.213Z,24.90
2019-06-26T03:34:11.809Z,24.90
2019-06-26T03:36:38.518Z,24.70
2019-06-26T03:39:06.715Z,24.70
2019-06-26T03:41:33.306Z,24.70
2019-06-26T03:43:59.898Z,24.60
2019-06-26T03:46:26.572Z,24.60
2019-06-26T03:48:53.183Z,24.60
2019-06-26T03:51:19.773Z,24.50
2019-06-26T03:53:46.355Z,24.50
2019-06-26T03:56:12.942Z,24.50
2019-06-26T03:58:39.539Z,24.40
2019-06-26T04:01:06.142Z,24.40
2019-06-26T04:03:32.813Z,24.40
2019-06-26T04:05:59.408Z,24.50
2019-06-26T04:08:25.987Z,24.50
2019-06-26T04:10:52.586Z,24.60
2019-06-26T04:13:19.249Z,24.70
2019-06-26T04:15:45.844Z,24.70
2019-06-26T04:18:12.475Z,24.70
2019-06-26T04:20:39.048Z,24.80
2019-06-26T04:23:05.711Z,24.90
2019-06-26T04:25:32.301Z,24.90
2019-06-26T04:27:58.906Z,24.90
2019-06-26T04:30:25.474Z,25.00
2019-06-26T04:32:52.050Z,24.90
2019-06-26T04:35:18.652Z,25.00
2019-06-26T04:37:45.237Z,25.00
2019-06-26T04:40:12.540Z,25.00
2019-06-26T04:42:39.205Z,25.10
2019-06-26T04:45:06.524Z,25.10
2019-06-26T04:47:33.123Z,25.10
2019-06-26T04:49:59.782Z,25.10
2019-06-26T04:52:26.362Z,25.20
2019-06-26T04:54:52.968Z,25.20
2019-06-26T04:57:19.562Z,25.20
2019-06-26T04:59:46.191Z,25.30
2019-06-26T05:02:12.787Z,25.30
2019-06-26T05:04:39.366Z,25.30
2019-06-26T05:07:05.976Z,25.40
2019-06-26T05:09:32.577Z,25.40
2019-06-26T05:11:59.174Z,25.40
2019-06-26T05:14:25.770Z,25.50
2019-06-26T05:16:52.353Z,25.50
2019-06-26T05:19:18.938Z,25.60
2019-06-26T05:21:45.965Z,25.70
2019-06-26T05:24:12.538Z,25.70
2019-06-26T05:26:39.121Z,25.70
2019-06-26T05:29:05.864Z,25.80
2019-06-26T05:31:32.549Z,25.80
2019-06-26T05:33:59.109Z,25.90
2019-06-26T05:36:25.770Z,25.90
2019-06-26T05:38:52.444Z,26.00
2019-06-26T05:41:19.039Z,26.00
2019-06-26T05:43:45.670Z,26.10
2019-06-26T05:46:12.272Z,26.20
2019-06-26T05:48:38.922Z,26.20
2019-06-26T05:51:05.534Z,26.20
2019-06-26T05:53:32.189Z,26.20
2019-06-26T05:55:58.785Z,26.30
2019-06-26T05:58:25.499Z,26.30
2019-06-26T06:00:52.122Z,26.40
2019-06-26T06:03:18.813Z,26.40
2019-06-26T06:05:45.490Z,26.50
2019-06-26T06:08:12.115Z,26.60
2019-06-26T06:10:38.753Z,26.60
2019-06-26T06:13:05.394Z,26.60
2019-06-26T06:15:31.987Z,26.70
2019-06-26T06:17:58.566Z,26.70
2019-06-26T06:20:33.897Z,26.80
2019-06-26T06:23:00.472Z,26.90
2019-06-26T06:25:27.068Z,27.00
2019-06-26T06:27:53.909Z,27.00
2019-06-26T06:30:20.858Z,27.10
2019-06-26T06:32:47.482Z,27.10
2019-06-26T06:35:14.142Z,27.10
2019-06-26T06:37:40.768Z,27.20
2019-06-26T06:40:08.718Z,27.30
2019-06-26T06:42:35.354Z,27.30
2019-06-26T06:45:04.834Z,27.30
2019-06-26T06:47:31.434Z,27.40
2019-06-26T06:49:58.023Z,27.50
2019-06-26T06:52:24.593Z,27.50
2019-06-26T06:54:51.255Z,27.60
2019-06-26T06:57:17.894Z,27.60
2019-06-26T06:59:44.476Z,27.70
2019-06-26T07:02:11.055Z,27.70
2019-06-26T07:04:37.696Z,27.80
2019-06-26T07:07:04.320Z,27.80
2019-06-26T07:09:30.968Z,27.90
2019-06-26T07:12:04.347Z,27.90
2019-06-26T07:14:31.011Z,28.00
2019-06-26T07:17:01.313Z,28.00
2019-06-26T07:19:26.093Z,28.10
2019-06-26T07:21:52.630Z,28.10
2019-06-26T07:24:19.389Z,28.20
2019-06-26T07:26:45.922Z,28.20
2019-06-26T07:29:12.448Z,28.30
2019-06-26T07:31:39.306Z,28.30
2019-06-26T07:34:05.945Z,28.40
2019-06-26T07:36:32.578Z,28.40
2019-06-26T07:38:59.098Z,28.50
2019-06-26T07:41:25.657Z,28.60
2019-06-26T07:43:52.268Z,28.50
2019-06-26T07:46:18.996Z,28.60
2019-06-26T07:48:45.582Z,28.60
2019-06-26T07:51:12.118Z,28.60
2019-06-26T07:53:38.650Z,28.70
2019-06-26T07:56:05.165Z,28.70
2019-06-26T07:58:31.706Z,28.80
2019-06-26T08:00:58.226Z,28.90
2019-06-26T08:03:24.768Z,28.90
2019-06-26T08:05:51.303Z,29.00
2019-06-26T08:08:17.884Z,29.00
2019-06-26T08:10:44.405Z,29.10
2019-06-26T08:13:10.935Z,29.20
2019-06-26T08:15:37.515Z,29.30
2019-06-26T08:18:04.073Z,29.40
2019-06-26T08:20:30.611Z,29.50
2019-06-26T08:22:57.142Z,29.60
2019-06-26T08:25:23.665Z,29.70
2019-06-26T08:27:50.198Z,29.70
2019-06-26T08:30:17.234Z,29.80
2019-06-26T08:32:43.791Z,29.90
2019-06-26T08:35:10.717Z,30.00
2019-06-26T08:37:37.263Z,30.10
2019-06-26T08:40:05.690Z,30.30
2019-06-26T08:42:32.266Z,30.30
2019-06-26T08:44:58.839Z,30.30
2019-06-26T08:47:25.566Z,30.30
2019-06-26T08:49:52.098Z,30.40
2019-06-26T08:52:19.233Z,30.40
2019-06-26T08:54:45.807Z,30.50
2019-06-26T08:57:12.445Z,30.60
2019-06-26T08:59:38.949Z,30.60
2019-06-26T09:02:05.500Z,30.60
2019-06-26T09:04:32.029Z,30.60
2019-06-26T09:06:58.552Z,30.60
2019-06-26T09:09:25.239Z,30.50
2019-06-26T09:11:51.808Z,30.50
2019-06-26T09:14:18.374Z,30.50
2019-06-26T09:16:44.902Z,30.60
2019-06-26T09:19:11.449Z,30.60
2019-06-26T09:21:37.975Z,30.60
2019-06-26T09:24:04.633Z,30.60
2019-06-26T09:26:31.460Z,30.60
2019-06-26T09:28:58.009Z,30.70
2019-06-26T09:31:24.537Z,30.80
2019-06-26T09:33:51.083Z,30.80
2019-06-26T09:36:17.611Z,30.80
2019-06-26T09:38:44.154Z,30.90
2019-06-26T09:41:10.708Z,30.90
2019-06-26T09:43:37.530Z,31.00
2019-06-26T09:46:04.202Z,31.00
2019-06-26T09:48:30.744Z,31.10
2019-06-26T09:50:57.282Z,31.10
2019-06-26T09:53:23.808Z,31.20
2019-06-26T09:55:50.347Z,31.30
2019-06-26T09:58:16.905Z,31.30
2019-06-26T10:00:43.429Z,31.40
2019-06-26T10:03:10.041Z,31.40
2019-06-26T10:05:36.584Z,31.50
2019-06-26T10:08:03.420Z,31.50
2019-06-26T10:10:30.203Z,31.50
2019-06-26T10:12:56.742Z,31.50
2019-06-26T10:15:23.364Z,31.50
2019-06-26T10:17:49.906Z,31.60
2019-06-26T10:20:18.548Z,31.70
2019-06-26T10:22:45.067Z,31.70
2019-06-26T10:25:14.911Z,31.80
2019-06-26T10:27:41.583Z,31.80
2019-06-26T10:30:09.411Z,31.80
2019-06-26T10:32:35.965Z,31.90
2019-06-26T10:35:04.336Z,32.00
2019-06-26T10:37:30.860Z,32.00
2019-06-26T10:39:57.406Z,32.00
2019-06-26T10:42:23.924Z,32.10
2019-06-26T10:44:50.488Z,32.10
2019-06-26T10:47:17.256Z,32.20
2019-06-26T10:49:44.152Z,32.20
2019-06-26T10:52:10.667Z,32.20
2019-06-26T10:54:37.311Z,32.30
2019-06-26T10:57:03.861Z,32.40
2019-06-26T10:59:30.421Z,32.50
2019-06-26T11:01:56.943Z,32.60
2019-06-26T11:04:23.481Z,32.60
2019-06-26T11:06:50.146Z,32.60
2019-06-26T11:09:16.750Z,32.60
2019-06-26T11:11:43.295Z,32.60
2019-06-26T11:14:09.821Z,32.50
2019-06-26T11:16:36.371Z,32.50
2019-06-26T11:19:03.199Z,32.40
2019-06-26T11:21:29.740Z,32.50
2019-06-26T11:23:56.278Z,32.60
2019-06-26T11:26:22.807Z,32.60
2019-06-26T11:28:49.328Z,32.70
2019-06-26T11:31:21.934Z,32.80
2019-06-26T11:33:48.497Z,32.90
2019-06-26T11:36:15.313Z,33.00
2019-06-26T11:38:41.837Z,32.90
2019-06-26T11:41:08.556Z,32.90
2019-06-26T11:43:35.086Z,32.90
2019-06-26T11:46:09.249Z,32.90
2019-06-26T11:48:35.740Z,32.90
2019-06-26T11:51:02.965Z,32.90
2019-06-26T11:53:29.634Z,32.90
2019-06-26T11:55:56.262Z,33.00
2019-06-26T11:58:22.812Z,33.10
2019-06-26T12:00:49.394Z,33.20
2019-06-26T12:03:15.981Z,33.30
2019-06-26T12:05:42.613Z,33.40
2019-06-26T12:08:09.175Z,33.40
2019-06-26T12:10:35.796Z,33.40
2019-06-26T12:13:04.240Z,33.40
2019-06-26T12:15:30.984Z,33.50
2019-06-26T12:17:57.522Z,33.70
2019-06-26T12:20:24.060Z,33.70
2019-06-26T12:22:50.626Z,33.80
2019-06-26T12:25:17.452Z,33.70
2019-06-26T12:27:44.103Z,33.80
2019-06-26T12:30:12.295Z,33.70
2019-06-26T12:32:42.277Z,33.60
2019-06-26T12:35:08.257Z,33.60
2019-06-26T12:37:38.065Z,33.50
2019-06-26T12:40:06.650Z,33.60
2019-06-26T12:42:33.552Z,33.60
2019-06-26T12:45:00.086Z,33.60
2019-06-26T12:47:26.712Z,33.60
2019-06-26T12:49:53.248Z,33.70
2019-06-26T12:52:19.797Z,33.70
2019-06-26T12:54:46.393Z,33.70
2019-06-26T12:57:12.971Z,33.70
2019-06-26T12:59:52.705Z,33.70
2019-06-26T13:02:07.952Z,33.70
2019-06-26T13:04:34.482Z,33.70
2019-06-26T13:07:01.013Z,33.70
2019-06-26T13:09:27.554Z,33.70
2019-06-26T13:11:54.089Z,33.60
2019-06-26T13:14:20.692Z,33.60
2019-06-26T13:16:47.216Z,33.70
2019-06-26T13:19:13.781Z,33.70
2019-06-26T13:21:40.331Z,33.80
2019-06-26T13:24:06.846Z,33.80
2019-06-26T13:26:33.370Z,33.70
2019-06-26T13:28:59.891Z,33.60
2019-06-26T13:31:26.496Z,33.50
2019-06-26T13:33:53.128Z,33.40
2019-06-26T13:36:19.638Z,33.30
2019-06-26T13:38:46.371Z,33.40
2019-06-26T13:41:12.837Z,33.40
2019-06-26T13:43:39.393Z,33.40
2019-06-26T13:46:05.980Z,33.30
2019-06-26T13:48:32.508Z,33.20
2019-06-26T13:51:08.722Z,33.20
2019-06-26T13:53:27.466Z,33.20
2019-06-26T13:55:53.993Z,33.20
2019-06-26T13:58:20.546Z,33.20
2019-06-26T14:00:47.079Z,33.20
2019-06-26T14:03:13.603Z,33.10
2019-06-26T14:05:40.221Z,33.10
2019-06-26T14:08:06.765Z,33.10
2019-06-26T14:10:33.400Z,33.20
2019-06-26T14:12:59.887Z,33.20
2019-06-26T14:15:26.612Z,33.10
2019-06-26T14:17:53.194Z,33.10
2019-06-26T14:20:20.178Z,33.00
2019-06-26T14:22:46.804Z,33.00
2019-06-26T14:25:13.936Z,33.10
2019-06-26T14:27:40.587Z,33.00
2019-06-26T14:30:08.513Z,32.90
2019-06-26T14:32:35.054Z,32.90
2019-06-26T14:35:05.706Z,32.90
2019-06-26T14:37:32.253Z,32.90
2019-06-26T14:39:58.928Z,32.90
2019-06-26T14:42:25.841Z,32.90
2019-06-26T14:44:52.899Z,32.90
2019-06-26T14:47:19.493Z,32.80
2019-06-26T14:49:46.227Z,32.80
2019-06-26T14:52:12.765Z,32.80
2019-06-26T14:54:39.319Z,32.80
2019-06-26T14:57:05.837Z,32.80
2019-06-26T14:59:33.742Z,32.80
2019-06-26T15:02:00.822Z,32.80
2019-06-26T15:04:27.367Z,32.80
2019-06-26T15:06:53.898Z,32.80
2019-06-26T15:09:22.111Z,32.80
2019-06-26T15:11:49.398Z,32.80
2019-06-26T15:14:16.015Z,32.80
2019-06-26T15:16:42.552Z,32.80
2019-06-26T15:19:09.333Z,32.80
2019-06-26T15:21:35.852Z,32.70
2019-06-26T15:24:02.452Z,32.70
2019-06-26T15:26:28.973Z,32.70
2019-06-26T15:28:55.503Z,32.70
2019-06-26T15:31:22.037Z,32.70
2019-06-26T15:33:49.924Z,32.70
2019-06-26T15:36:16.446Z,32.70
2019-06-26T15:38:42.993Z,32.70
2019-06-26T15:41:09.589Z,32.70
2019-06-26T15:43:37.004Z,32.70
2019-06-26T15:46:03.544Z,32.70
2019-06-26T15:48:30.088Z,32.70
2019-06-26T15:50:56.838Z,32.60
2019-06-26T15:53:23.378Z,32.60
2019-06-26T15:55:49.987Z,32.60
2019-06-26T15:58:16.572Z,32.70
2019-06-26T16:00:44.731Z,32.70
2019-06-26T16:03:11.351Z,32.70
2019-06-26T16:05:37.909Z,32.60
2019-06-26T16:08:04.404Z,32.50
2019-06-26T16:10:34.289Z,32.50
2019-06-26T16:12:59.432Z,32.50
2019-06-26T16:15:26.028Z,32.50
2019-06-26T16:17:54.461Z,32.50
2019-06-26T16:20:20.993Z,32.50
2019-06-26T16:22:47.509Z,32.60
2019-06-26T16:25:14.847Z,32.60
2019-06-26T16:27:41.477Z,32.50
2019-06-26T16:30:08.353Z,32.50
2019-06-26T16:32:34.839Z,32.50
2019-06-26T16:35:05.769Z,32.50
2019-06-26T16:37:32.402Z,32.50
2019-06-26T16:39:59.068Z,32.50
2019-06-26T16:42:25.586Z,32.50
2019-06-26T16:44:52.120Z,32.40
2019-06-26T16:47:18.666Z,32.40
2019-06-26T16:49:45.289Z,32.40
2019-06-26T16:52:11.810Z,32.50
2019-06-26T16:54:38.353Z,32.40
2019-06-26T16:57:05.031Z,32.40
2019-06-26T16:59:31.626Z,32.40
2019-06-26T17:01:58.181Z,32.40
2019-06-26T17:04:25.729Z,32.30
2019-06-26T17:06:52.268Z,32.20
2019-06-26T17:09:18.817Z,32.20
2019-06-26T17:11:45.427Z,32.20
2019-06-26T17:14:11.950Z,32.20
2019-06-26T17:16:38.613Z,32.10
2019-06-26T17:19:05.233Z,32.10
2019-06-26T17:21:31.769Z,32.00
2019-06-26T17:23:58.414Z,32.00
2019-06-26T17:26:24.963Z,32.00
2019-06-26T17:28:51.489Z,32.00
2019-06-26T17:31:18.021Z,32.10
2019-06-26T17:33:44.544Z,32.00
2019-06-26T17:36:11.082Z,32.00
2019-06-26T17:38:37.612Z,32.00
2019-06-26T17:41:04.312Z,32.00
2019-06-26T17:43:30.838Z,32.00
2019-06-26T17:45:57.370Z,32.00
2019-06-26T17:48:23.897Z,32.00
2019-06-26T17:50:50.508Z,32.00
2019-06-26T17:53:21.485Z,32.00
2019-06-26T17:55:45.521Z,31.90
2019-06-26T17:58:12.058Z,31.90
2019-06-26T18:00:38.588Z,31.90
2019-06-26T18:03:05.116Z,31.90
2019-06-26T18:05:31.684Z,31.90
2019-06-26T18:07:58.226Z,31.80
2019-06-26T18:10:24.848Z,31.80
2019-06-26T18:12:51.387Z,31.70
2019-06-26T18:15:18.042Z,31.70
2019-06-26T18:17:44.552Z,31.60
2019-06-26T18:20:12.002Z,31.60
2019-06-26T18:22:40.319Z,31.60
2019-06-26T18:25:07.631Z,31.50
2019-06-26T18:27:34.168Z,31.40
2019-06-26T18:30:00.681Z,31.40
2019-06-26T18:32:27.246Z,31.30
2019-06-26T18:34:53.788Z,31.30
2019-06-26T18:37:20.503Z,31.20
2019-06-26T18:39:47.036Z,31.20
2019-06-26T18:42:13.570Z,31.10
2019-06-26T18:44:40.098Z,31.00
2019-06-26T18:47:06.643Z,31.00
2019-06-26T18:49:33.175Z,30.90
2019-06-26T18:51:59.713Z,30.80
2019-06-26T18:54:26.240Z,30.80
2019-06-26T18:56:52.896Z,30.70
2019-06-26T18:59:19.441Z,30.60
2019-06-26T19:01:45.996Z,30.50
2019-06-26T19:04:12.558Z,30.50
2019-06-26T19:06:39.099Z,30.40
2019-06-26T19:09:05.738Z,30.30
2019-06-26T19:11:32.286Z,30.20
2019-06-26T19:13:58.815Z,30.10
2019-06-26T19:16:25.452Z,30.00
2019-06-26T19:18:52.021Z,29.90
2019-06-26T19:21:18.541Z,29.80
2019-06-26T19:23:45.087Z,29.70
2019-06-26T19:26:11.646Z,29.70
2019-06-26T19:28:38.182Z,29.60
2019-06-26T19:31:04.708Z,29.50
2019-06-26T19:33:31.266Z,29.40
2019-06-26T19:35:57.776Z,29.30
2019-06-26T19:38:24.342Z,29.10
2019-06-26T19:40:50.886Z,29.00
2019-06-26T19:43:17.448Z,28.90
2019-06-26T19:45:44.029Z,28.90
2019-06-26T19:48:10.570Z,28.80
2019-06-26T19:50:37.091Z,28.70
2019-06-26T19:53:03.644Z,28.70
2019-06-26T19:55:30.164Z,28.60
2019-06-26T19:57:56.714Z,28.60
2019-06-26T20:00:23.247Z,28.60
2019-06-26T20:02:49.783Z,28.60
2019-06-26T20:05:16.319Z,28.60
2019-06-26T20:07:42.862Z,28.50
2019-06-26T20:10:11.884Z,28.50
2019-06-26T20:12:38.432Z,28.40
2019-06-26T20:15:06.570Z,28.40
2019-06-26T20:17:33.121Z,28.30
2019-06-26T20:19:59.759Z,28.30
2019-06-26T20:22:26.299Z,28.30
2019-06-26T20:24:52.827Z,28.20
2019-06-26T20:27:19.399Z,28.20
2019-06-26T20:29:45.948Z,28.20
2019-06-26T20:32:12.656Z,28.10
2019-06-26T20:34:39.213Z,28.10
2019-06-26T20:37:05.755Z,28.10
2019-06-26T20:39:32.287Z,28.00
2019-06-26T20:41:58.839Z,28.00
2019-06-26T20:44:25.425Z,28.00
2019-06-26T20:46:51.959Z,28.00
2019-06-26T20:49:18.657Z,28.00
2019-06-26T20:51:45.166Z,27.90
2019-06-26T20:54:11.727Z,27.90
2019-06-26T20:56:38.279Z,27.90
2019-06-26T20:59:04.848Z,27.80
2019-06-26T21:01:31.381Z,27.80
2019-06-26T21:03:57.908Z,27.80
2019-06-26T21:06:24.470Z,27.70
2019-06-26T21:08:51.080Z,27.70
2019-06-26T21:11:17.608Z,27.60
2019-06-26T21:13:44.150Z,27.60
2019-06-26T21:16:10.677Z,27.50
2019-06-26T21:18:37.224Z,27.50
2019-06-26T21:21:03.753Z,27.50
2019-06-26T21:23:30.445Z,27.50
2019-06-26T21:25:56.954Z,27.50
2019-06-26T21:28:23.565Z,27.50
2019-06-26T21:30:50.096Z,27.40
2019-06-26T21:33:16.628Z,27.40
2019-06-26T21:35:43.166Z,27.40
2019-06-26T21:38:09.780Z,27.30
2019-06-26T21:40:36.301Z,27.30
2019-06-26T21:43:02.885Z,27.30
2019-06-26T21:45:29.414Z,27.30
2019-06-26T21:47:56.052Z,27.20
2019-06-26T21:50:22.574Z,27.30
2019-06-26T21:52:49.215Z,27.30
2019-06-26T21:55:15.761Z,27.30
2019-06-26T21:57:42.291Z,27.30
2019-06-26T22:00:10.084Z,27.30
2019-06-26T22:02:36.572Z,27.30
2019-06-26T22:05:07.242Z,27.30
2019-06-26T22:07:33.856Z,27.30
2019-06-26T22:10:00.610Z,27.20
2019-06-26T22:12:27.145Z,27.20
2019-06-26T22:14:53.697Z,27.20
2019-06-26T22:17:20.251Z,27.20
2019-06-26T22:19:46.766Z,27.20
2019-06-26T22:22:13.352Z,27.20
2019-06-26T22:24:40.006Z,27.20
2019-06-26T22:27:06.488Z,27.20
2019-06-26T22:29:33.026Z,27.20
2019-06-26T22:31:59.555Z,27.10
2019-06-26T22:34:26.099Z,27.10
2019-06-26T22:36:52.638Z,27.10
2019-06-26T22:39:19.220Z,27.00
2019-06-26T22:41:45.742Z,27.00
2019-06-26T22:44:12.372Z,27.10
2019-06-26T22:46:38.916Z,27.00
2019-06-26T22:49:05.468Z,27.00
2019-06-26T22:51:31.999Z,26.90
2019-06-26T22:53:58.545Z,26.90
2019-06-26T22:56:25.069Z,26.80
2019-06-26T22:58:51.621Z,26.80
2019-06-26T23:01:18.167Z,26.80
2019-06-26T23:03:44.776Z,26.70
2019-06-26T23:06:11.306Z,26.80
2019-06-26T23:08:37.951Z,26.80
2019-06-26T23:11:04.510Z,26.80
2019-06-26T23:13:31.039Z,26.70
2019-06-26T23:15:57.579Z,26.70
2019-06-26T23:18:24.136Z,26.70
2019-06-26T23:20:53.531Z,26.70
2019-06-26T23:23:20.065Z,26.60
2019-06-26T23:25:46.611Z,26.70
2019-06-26T23:28:13.174Z,26.60
2019-06-26T23:30:39.715Z,26.70
2019-06-26T23:33:06.252Z,26.60
2019-06-26T23:35:33.109Z,26.60
2019-06-26T23:37:59.638Z,26.60
2019-06-26T23:40:26.278Z,26.60
2019-06-26T23:42:52.919Z,26.60
2019-06-26T23:45:19.510Z,26.60
2019-06-26T23:47:46.049Z,26.50
2019-06-26T23:50:13.185Z,26.50
2019-06-26T23:52:39.705Z,26.50
2019-06-26T23:55:07.082Z,26.50
2019-06-26T23:57:33.762Z,26.50
